sensor_id;sensor_type;location;lat;lon;timestamp;temperature;humidity
2543;DHT22;1116;51.502;7.414;2022-08-14T00:00:11;23.30;1.00
2543;DHT22;1116;51.502;7.414;2022-08-14T00:02:42;23.30;1.00
2543;DHT22;1116;51.502;7.414;2022-08-14T00:05:16;23.40;1.00
2543;DHT22;1116;51.502;7.414;2022-08-14T00:07:45;23.50;1.00
2543;DHT22;1116;51.502;7.414;2022-08-14T00:10:19;22.90;1.00
2543;DHT22;1116;51.502;7.414;2022-08-14T00:13:09;22.80;1.00
2543;DHT22;1116;51.502;7.414;2022-08-14T00:15:41;22.80;1.00
2543;DHT22;1116;51.502;7.414;2022-08-14T00:18:19;22.70;1.00
2543;DHT22;1116;51.502;7.414;2022-08-14T00:21:08;22.80;1.00
2543;DHT22;1116;51.502;7.414;2022-08-14T00:23:38;22.60;1.00
2543;DHT22;1116;51.502;7.414;2022-08-14T00:26:07;22.60;1.00
2543;DHT22;1116;51.502;7.414;2022-08-14T00:28:50;23.10;1.00
2543;DHT22;1116;51.502;7.414;2022-08-14T00:31:20;22.40;1.00
2543;DHT22;1116;51.502;7.414;2022-08-14T00:34:10;23.00;1.00
2543;DHT22;1116;51.502;7.414;2022-08-14T00:37:00;22.30;1.00
2543;DHT22;1116;51.502;7.414;2022-08-14T00:39:29;22.20;1.00
2543;DHT22;1116;51.502;7.414;2022-08-14T00:41:59;22.10;1.00
2543;DHT22;1116;51.502;7.414;2022-08-14T00:44:29;22.20;1.00
2543;DHT22;1116;51.502;7.414;2022-08-14T00:47:00;22.00;1.00
2543;DHT22;1116;51.502;7.414;2022-08-14T00:49:32;22.20;1.00
2543;DHT22;1116;51.502;7.414;2022-08-14T00:52:10;21.90;1.00
2543;DHT22;1116;51.502;7.414;2022-08-14T00:54:42;21.80;1.00
2543;DHT22;1116;51.502;7.414;2022-08-14T00:57:12;21.90;1.00
2543;DHT22;1116;51.502;7.414;2022-08-14T00:59:41;21.80;1.00
2543;DHT22;1116;51.502;7.414;2022-08-14T01:02:11;21.80;1.00
2543;DHT22;1116;51.502;7.414;2022-08-14T01:04:48;21.80;1.00
2543;DHT22;1116;51.502;7.414;2022-08-14T01:07:22;21.70;1.00
2543;DHT22;1116;51.502;7.414;2022-08-14T01:09:56;21.70;1.00
2543;DHT22;1116;51.502;7.414;2022-08-14T01:12:26;21.70;1.00
2543;DHT22;1116;51.502;7.414;2022-08-14T01:14:58;21.60;1.00
2543;DHT22;1116;51.502;7.414;2022-08-14T01:17:30;22.10;1.00
2543;DHT22;1116;51.502;7.414;2022-08-14T01:20:18;21.70;1.00
2543;DHT22;1116;51.502;7.414;2022-08-14T01:23:11;21.60;1.00
2543;DHT22;1116;51.502;7.414;2022-08-14T01:25:47;21.50;1.00
2543;DHT22;1116;51.502;7.414;2022-08-14T01:28:19;21.50;1.00
2543;DHT22;1116;51.502;7.414;2022-08-14T01:31:10;21.40;1.00
2543;DHT22;1116;51.502;7.414;2022-08-14T01:33:42;21.50;1.00
2543;DHT22;1116;51.502;7.414;2022-08-14T01:36:35;21.40;1.00
2543;DHT22;1116;51.502;7.414;2022-08-14T01:39:10;21.30;1.00
2543;DHT22;1116;51.502;7.414;2022-08-14T01:41:41;21.40;1.00
2543;DHT22;1116;51.502;7.414;2022-08-14T01:44:15;21.40;1.00
2543;DHT22;1116;51.502;7.414;2022-08-14T01:47:06;21.30;1.00
2543;DHT22;1116;51.502;7.414;2022-08-14T01:49:49;21.20;1.00
2543;DHT22;1116;51.502;7.414;2022-08-14T01:52:31;21.20;1.00
2543;DHT22;1116;51.502;7.414;2022-08-14T01:55:25;21.40;1.00
2543;DHT22;1116;51.502;7.414;2022-08-14T01:58:00;21.60;1.00
2543;DHT22;1116;51.502;7.414;2022-08-14T02:00:48;21.20;1.00
2543;DHT22;1116;51.502;7.414;2022-08-14T02:03:24;21.10;1.00
2543;DHT22;1116;51.502;7.414;2022-08-14T02:05:57;21.20;1.00
2543;DHT22;1116;51.502;7.414;2022-08-14T02:08:47;20.90;1.00
2543;DHT22;1116;51.502;7.414;2022-08-14T02:11:24;21.00;1.00
2543;DHT22;1116;51.502;7.414;2022-08-14T02:13:57;20.90;1.00
2543;DHT22;1116;51.502;7.414;2022-08-14T02:16:37;20.90;1.00
2543;DHT22;1116;51.502;7.414;2022-08-14T02:19:10;20.80;1.00
2543;DHT22;1116;51.502;7.414;2022-08-14T02:21:41;20.90;1.00
2543;DHT22;1116;51.502;7.414;2022-08-14T02:24:18;20.80;1.00
2543;DHT22;1116;51.502;7.414;2022-08-14T02:27:10;20.50;1.00
2543;DHT22;1116;51.502;7.414;2022-08-14T02:29:59;20.50;1.00
2543;DHT22;1116;51.502;7.414;2022-08-14T02:32:30;20.50;1.00
2543;DHT22;1116;51.502;7.414;2022-08-14T02:35:07;20.90;1.00
2543;DHT22;1116;51.502;7.414;2022-08-14T02:37:46;20.50;1.00
2543;DHT22;1116;51.502;7.414;2022-08-14T02:40:17;20.60;1.00
2543;DHT22;1116;51.502;7.414;2022-08-14T02:42:47;20.70;1.00
2543;DHT22;1116;51.502;7.414;2022-08-14T02:45:22;20.80;1.00
2543;DHT22;1116;51.502;7.414;2022-08-14T02:47:51;20.60;1.00
2543;DHT22;1116;51.502;7.414;2022-08-14T02:50:24;20.70;1.00
2543;DHT22;1116;51.502;7.414;2022-08-14T02:52:54;20.60;1.00
2543;DHT22;1116;51.502;7.414;2022-08-14T02:55:30;20.60;1.00
2543;DHT22;1116;51.502;7.414;2022-08-14T02:58:01;20.60;1.00
2543;DHT22;1116;51.502;7.414;2022-08-14T03:00:33;20.60;1.00
2543;DHT22;1116;51.502;7.414;2022-08-14T03:03:07;20.60;1.00
2543;DHT22;1116;51.502;7.414;2022-08-14T03:05:36;20.70;1.00
2543;DHT22;1116;51.502;7.414;2022-08-14T03:08:09;20.80;1.00
2543;DHT22;1116;51.502;7.414;2022-08-14T03:10:46;20.70;1.00
2543;DHT22;1116;51.502;7.414;2022-08-14T03:13:18;20.70;1.00
2543;DHT22;1116;51.502;7.414;2022-08-14T03:15:50;20.70;1.00
2543;DHT22;1116;51.502;7.414;2022-08-14T03:18:25;20.60;1.00
2543;DHT22;1116;51.502;7.414;2022-08-14T03:21:02;20.50;1.10
2543;DHT22;1116;51.502;7.414;2022-08-14T03:23:33;20.40;1.40
2543;DHT22;1116;51.502;7.414;2022-08-14T03:26:07;20.50;1.00
2543;DHT22;1116;51.502;7.414;2022-08-14T03:28:48;20.40;1.20
2543;DHT22;1116;51.502;7.414;2022-08-14T03:31:18;20.40;1.40
2543;DHT22;1116;51.502;7.414;2022-08-14T03:33:52;19.90;1.70
2543;DHT22;1116;51.502;7.414;2022-08-14T03:36:22;20.40;1.80
2543;DHT22;1116;51.502;7.414;2022-08-14T03:39:12;20.40;1.30
2543;DHT22;1116;51.502;7.414;2022-08-14T03:41:53;20.50;1.40
2543;DHT22;1116;51.502;7.414;2022-08-14T03:44:28;20.50;1.30
2543;DHT22;1116;51.502;7.414;2022-08-14T03:47:19;20.50;1.40
2543;DHT22;1116;51.502;7.414;2022-08-14T03:49:48;20.80;2.40
2543;DHT22;1116;51.502;7.414;2022-08-14T03:52:17;20.60;2.10
2543;DHT22;1116;51.502;7.414;2022-08-14T03:55:08;20.40;1.90
2543;DHT22;1116;51.502;7.414;2022-08-14T03:57:39;20.30;2.20
2543;DHT22;1116;51.502;7.414;2022-08-14T04:00:12;20.10;2.60
2543;DHT22;1116;51.502;7.414;2022-08-14T04:03:02;20.10;2.60
2543;DHT22;1116;51.502;7.414;2022-08-14T04:05:33;20.20;2.60
2543;DHT22;1116;51.502;7.414;2022-08-14T04:08:15;20.10;3.10
2543;DHT22;1116;51.502;7.414;2022-08-14T04:10:58;20.00;3.00
2543;DHT22;1116;51.502;7.414;2022-08-14T04:13:30;20.00;3.00
2543;DHT22;1116;51.502;7.414;2022-08-14T04:16:04;20.10;3.10
2543;DHT22;1116;51.502;7.414;2022-08-14T04:18:38;19.80;3.50
2543;DHT22;1116;51.502;7.414;2022-08-14T04:21:09;20.00;4.20
2543;DHT22;1116;51.502;7.414;2022-08-14T04:23:39;19.80;4.20
2543;DHT22;1116;51.502;7.414;2022-08-14T04:26:11;19.80;4.00
2543;DHT22;1116;51.502;7.414;2022-08-14T04:28:54;19.70;5.20
2543;DHT22;1116;51.502;7.414;2022-08-14T04:31:42;19.70;5.40
2543;DHT22;1116;51.502;7.414;2022-08-14T04:34:31;19.60;5.40
2543;DHT22;1116;51.502;7.414;2022-08-14T04:37:03;20.20;5.50
2543;DHT22;1116;51.502;7.414;2022-08-14T04:39:53;19.90;5.40
2543;DHT22;1116;51.502;7.414;2022-08-14T04:42:42;19.50;6.00
2543;DHT22;1116;51.502;7.414;2022-08-14T04:45:28;19.80;6.00
2543;DHT22;1116;51.502;7.414;2022-08-14T04:48:08;19.90;6.30
2543;DHT22;1116;51.502;7.414;2022-08-14T04:51:01;19.90;6.00
2543;DHT22;1116;51.502;7.414;2022-08-14T04:53:31;19.80;6.40
2543;DHT22;1116;51.502;7.414;2022-08-14T04:56:03;19.70;6.30
2543;DHT22;1116;51.502;7.414;2022-08-14T04:58:54;19.60;6.60
2543;DHT22;1116;51.502;7.414;2022-08-14T05:01:28;19.80;6.60
2543;DHT22;1116;51.502;7.414;2022-08-14T05:04:08;19.80;6.20
2543;DHT22;1116;51.502;7.414;2022-08-14T05:06:43;19.90;6.40
2543;DHT22;1116;51.502;7.414;2022-08-14T05:09:15;19.80;6.70
2543;DHT22;1116;51.502;7.414;2022-08-14T05:11:48;19.80;7.00
2543;DHT22;1116;51.502;7.414;2022-08-14T05:14:19;19.80;7.00
2543;DHT22;1116;51.502;7.414;2022-08-14T05:17:09;20.10;7.40
2543;DHT22;1116;51.502;7.414;2022-08-14T05:19:40;19.80;7.60
2543;DHT22;1116;51.502;7.414;2022-08-14T05:22:29;19.70;8.40
2543;DHT22;1116;51.502;7.414;2022-08-14T05:24:58;19.80;8.30
2543;DHT22;1116;51.502;7.414;2022-08-14T05:27:28;20.10;7.90
2543;DHT22;1116;51.502;7.414;2022-08-14T05:29:58;20.20;7.10
2543;DHT22;1116;51.502;7.414;2022-08-14T05:32:32;20.80;6.80
2543;DHT22;1116;51.502;7.414;2022-08-14T05:35:06;20.60;6.30
2543;DHT22;1116;51.502;7.414;2022-08-14T05:37:38;20.40;6.50
2543;DHT22;1116;51.502;7.414;2022-08-14T05:40:13;20.50;6.30
2543;DHT22;1116;51.502;7.414;2022-08-14T05:42:42;20.60;6.20
2543;DHT22;1116;51.502;7.414;2022-08-14T05:45:19;20.50;5.90
2543;DHT22;1116;51.502;7.414;2022-08-14T05:47:51;20.60;5.20
2543;DHT22;1116;51.502;7.414;2022-08-14T05:50:22;21.00;4.70
2543;DHT22;1116;51.502;7.414;2022-08-14T05:52:56;21.30;5.20
2543;DHT22;1116;51.502;7.414;2022-08-14T05:55:25;21.10;4.70
2543;DHT22;1116;51.502;7.414;2022-08-14T05:57:57;21.10;4.40
2543;DHT22;1116;51.502;7.414;2022-08-14T06:00:29;21.30;4.00
2543;DHT22;1116;51.502;7.414;2022-08-14T06:03:07;21.40;3.60
2543;DHT22;1116;51.502;7.414;2022-08-14T06:05:38;21.50;3.70
2543;DHT22;1116;51.502;7.414;2022-08-14T06:08:14;21.70;2.90
2543;DHT22;1116;51.502;7.414;2022-08-14T06:11:05;21.80;2.50
2543;DHT22;1116;51.502;7.414;2022-08-14T06:13:36;21.80;2.60
2543;DHT22;1116;51.502;7.414;2022-08-14T06:16:14;21.90;3.50
2543;DHT22;1116;51.502;7.414;2022-08-14T06:18:48;21.90;2.90
2543;DHT22;1116;51.502;7.414;2022-08-14T06:21:21;21.70;2.60
2543;DHT22;1116;51.502;7.414;2022-08-14T06:23:50;21.90;2.80
2543;DHT22;1116;51.502;7.414;2022-08-14T06:26:20;21.90;2.60
2543;DHT22;1116;51.502;7.414;2022-08-14T06:28:57;21.90;2.30
2543;DHT22;1116;51.502;7.414;2022-08-14T06:31:26;22.20;1.70
2543;DHT22;1116;51.502;7.414;2022-08-14T06:33:57;22.20;1.60
2543;DHT22;1116;51.502;7.414;2022-08-14T06:36:50;22.40;1.40
2543;DHT22;1116;51.502;7.414;2022-08-14T06:39:20;22.50;2.00
2543;DHT22;1116;51.502;7.414;2022-08-14T06:42:08;22.60;1.30
2543;DHT22;1116;51.502;7.414;2022-08-14T06:44:57;22.80;1.00
2543;DHT22;1116;51.502;7.414;2022-08-14T06:47:32;23.00;1.00
2543;DHT22;1116;51.502;7.414;2022-08-14T06:50:02;23.10;1.00
2543;DHT22;1116;51.502;7.414;2022-08-14T06:52:33;23.30;1.00
2543;DHT22;1116;51.502;7.414;2022-08-14T06:55:17;23.60;1.00
2543;DHT22;1116;51.502;7.414;2022-08-14T06:57:52;23.60;1.00
2543;DHT22;1116;51.502;7.414;2022-08-14T07:00:24;23.40;1.00
2543;DHT22;1116;51.502;7.414;2022-08-14T07:03:07;23.60;1.00
2543;DHT22;1116;51.502;7.414;2022-08-14T07:06:00;23.70;1.00
2543;DHT22;1116;51.502;7.414;2022-08-14T07:08:51;23.70;1.00
2543;DHT22;1116;51.502;7.414;2022-08-14T07:11:28;24.10;1.00
2543;DHT22;1116;51.502;7.414;2022-08-14T07:14:02;24.60;1.00
2543;DHT22;1116;51.502;7.414;2022-08-14T07:16:41;25.10;1.00
2543;DHT22;1116;51.502;7.414;2022-08-14T07:19:24;24.70;1.00
2543;DHT22;1116;51.502;7.414;2022-08-14T07:21:56;24.70;1.00
2543;DHT22;1116;51.502;7.414;2022-08-14T07:24:42;24.90;1.00
2543;DHT22;1116;51.502;7.414;2022-08-14T07:27:18;24.90;1.00
2543;DHT22;1116;51.502;7.414;2022-08-14T07:30:08;24.90;1.00
2543;DHT22;1116;51.502;7.414;2022-08-14T07:33:11;24.90;1.00
2543;DHT22;1116;51.502;7.414;2022-08-14T07:35:53;25.30;1.00
2543;DHT22;1116;51.502;7.414;2022-08-14T07:38:57;25.40;1.00
2543;DHT22;1116;51.502;7.414;2022-08-14T07:41:46;25.90;1.00
2543;DHT22;1116;51.502;7.414;2022-08-14T07:44:36;25.80;1.00
2543;DHT22;1116;51.502;7.414;2022-08-14T07:47:26;25.80;1.00
2543;DHT22;1116;51.502;7.414;2022-08-14T07:50:02;26.20;1.00
2543;DHT22;1116;51.502;7.414;2022-08-14T07:52:56;26.20;1.00
2543;DHT22;1116;51.502;7.414;2022-08-14T07:55:43;26.70;1.00
2543;DHT22;1116;51.502;7.414;2022-08-14T07:58:45;27.30;1.00
2543;DHT22;1116;51.502;7.414;2022-08-14T08:01:24;28.70;1.00
2543;DHT22;1116;51.502;7.414;2022-08-14T08:04:36;29.80;1.00
2543;DHT22;1116;51.502;7.414;2022-08-14T08:07:21;30.30;1.00
2543;DHT22;1116;51.502;7.414;2022-08-14T08:10:06;29.80;1.00
2543;DHT22;1116;51.502;7.414;2022-08-14T08:13:26;30.70;1.00
2543;DHT22;1116;51.502;7.414;2022-08-14T08:15:57;30.80;1.00
2543;DHT22;1116;51.502;7.414;2022-08-14T08:18:27;31.30;1.00
2543;DHT22;1116;51.502;7.414;2022-08-14T08:20:58;31.80;1.00
2543;DHT22;1116;51.502;7.414;2022-08-14T08:23:29;32.30;1.00
2543;DHT22;1116;51.502;7.414;2022-08-14T08:26:10;32.50;1.00
2543;DHT22;1116;51.502;7.414;2022-08-14T08:28:41;32.90;1.00
2543;DHT22;1116;51.502;7.414;2022-08-14T08:31:12;33.40;1.00
2543;DHT22;1116;51.502;7.414;2022-08-14T08:33:42;33.10;1.00
2543;DHT22;1116;51.502;7.414;2022-08-14T08:36:16;33.70;1.00
2543;DHT22;1116;51.502;7.414;2022-08-14T08:38:47;33.30;1.00
2543;DHT22;1116;51.502;7.414;2022-08-14T08:41:42;32.30;1.00
2543;DHT22;1116;51.502;7.414;2022-08-14T08:44:16;31.90;1.00
2543;DHT22;1116;51.502;7.414;2022-08-14T08:47:02;31.30;1.00
2543;DHT22;1116;51.502;7.414;2022-08-14T08:49:36;30.70;1.00
2543;DHT22;1116;51.502;7.414;2022-08-14T08:52:15;30.00;1.00
2543;DHT22;1116;51.502;7.414;2022-08-14T08:54:55;29.90;1.00
2543;DHT22;1116;51.502;7.414;2022-08-14T08:57:25;29.80;1.00
2543;DHT22;1116;51.502;7.414;2022-08-14T08:59:55;29.50;1.00
2543;DHT22;1116;51.502;7.414;2022-08-14T09:02:27;29.40;1.00
2543;DHT22;1116;51.502;7.414;2022-08-14T09:07:30;29.60;1.00
2543;DHT22;1116;51.502;7.414;2022-08-14T09:10:00;29.40;1.00
2543;DHT22;1116;51.502;7.414;2022-08-14T09:12:30;29.00;1.00
2543;DHT22;1116;51.502;7.414;2022-08-14T09:15:05;28.70;1.00
2543;DHT22;1116;51.502;7.414;2022-08-14T09:17:41;28.40;1.00
2543;DHT22;1116;51.502;7.414;2022-08-14T09:20:11;28.80;1.00
2543;DHT22;1116;51.502;7.414;2022-08-14T09:22:53;28.90;1.00
2543;DHT22;1116;51.502;7.414;2022-08-14T09:25:22;29.20;1.00
2543;DHT22;1116;51.502;7.414;2022-08-14T09:28:12;29.10;1.00
2543;DHT22;1116;51.502;7.414;2022-08-14T09:30:46;28.80;1.00
2543;DHT22;1116;51.502;7.414;2022-08-14T09:33:44;28.70;1.00
2543;DHT22;1116;51.502;7.414;2022-08-14T09:36:57;28.90;1.00
2543;DHT22;1116;51.502;7.414;2022-08-14T09:39:45;28.60;1.00
2543;DHT22;1116;51.502;7.414;2022-08-14T09:42:43;29.00;1.00
2543;DHT22;1116;51.502;7.414;2022-08-14T09:45:19;29.00;1.00
2543;DHT22;1116;51.502;7.414;2022-08-14T09:47:52;29.20;1.00
2543;DHT22;1116;51.502;7.414;2022-08-14T09:50:25;29.20;1.00
2543;DHT22;1116;51.502;7.414;2022-08-14T09:52:58;29.50;1.00
2543;DHT22;1116;51.502;7.414;2022-08-14T09:55:33;29.40;1.00
2543;DHT22;1116;51.502;7.414;2022-08-14T09:58:12;29.60;1.00
2543;DHT22;1116;51.502;7.414;2022-08-14T10:00:51;29.80;1.00
2543;DHT22;1116;51.502;7.414;2022-08-14T10:03:25;29.50;1.00
2543;DHT22;1116;51.502;7.414;2022-08-14T10:06:07;29.60;1.00
2543;DHT22;1116;51.502;7.414;2022-08-14T10:08:41;29.90;1.00
2543;DHT22;1116;51.502;7.414;2022-08-14T10:11:17;30.10;1.00
2543;DHT22;1116;51.502;7.414;2022-08-14T10:13:52;30.20;1.00
2543;DHT22;1116;51.502;7.414;2022-08-14T10:16:24;30.00;1.00
2543;DHT22;1116;51.502;7.414;2022-08-14T10:19:03;29.60;1.00
2543;DHT22;1116;51.502;7.414;2022-08-14T10:21:37;29.70;1.00
2543;DHT22;1116;51.502;7.414;2022-08-14T10:24:28;29.90;1.00
2543;DHT22;1116;51.502;7.414;2022-08-14T10:27:12;29.80;1.00
2543;DHT22;1116;51.502;7.414;2022-08-14T10:29:47;29.90;1.00
2543;DHT22;1116;51.502;7.414;2022-08-14T10:32:17;30.20;1.00
2543;DHT22;1116;51.502;7.414;2022-08-14T10:35:05;30.00;1.00
2543;DHT22;1116;51.502;7.414;2022-08-14T10:37:45;30.10;1.00
2543;DHT22;1116;51.502;7.414;2022-08-14T10:40:24;30.60;1.00
2543;DHT22;1116;51.502;7.414;2022-08-14T10:43:18;31.10;1.00
2543;DHT22;1116;51.502;7.414;2022-08-14T10:45:55;31.00;1.00
2543;DHT22;1116;51.502;7.414;2022-08-14T10:48:56;30.70;1.00
2543;DHT22;1116;51.502;7.414;2022-08-14T10:51:28;30.60;1.00
2543;DHT22;1116;51.502;7.414;2022-08-14T10:54:07;30.80;1.00
2543;DHT22;1116;51.502;7.414;2022-08-14T10:56:56;30.50;1.00
2543;DHT22;1116;51.502;7.414;2022-08-14T10:59:26;30.60;1.00
2543;DHT22;1116;51.502;7.414;2022-08-14T11:02:03;30.70;1.00
2543;DHT22;1116;51.502;7.414;2022-08-14T11:04:32;30.90;1.00
2543;DHT22;1116;51.502;7.414;2022-08-14T11:07:12;31.10;1.00
2543;DHT22;1116;51.502;7.414;2022-08-14T11:09:53;31.30;1.00
2543;DHT22;1116;51.502;7.414;2022-08-14T11:12:25;31.40;1.00
2543;DHT22;1116;51.502;7.414;2022-08-14T11:15:08;31.00;1.00
2543;DHT22;1116;51.502;7.414;2022-08-14T11:17:37;30.90;1.00
2543;DHT22;1116;51.502;7.414;2022-08-14T11:20:14;31.20;1.00
2543;DHT22;1116;51.502;7.414;2022-08-14T11:22:46;31.20;1.00
2543;DHT22;1116;51.502;7.414;2022-08-14T11:25:27;31.20;1.00
2543;DHT22;1116;51.502;7.414;2022-08-14T11:28:21;31.30;1.00
2543;DHT22;1116;51.502;7.414;2022-08-14T11:31:11;31.10;1.00
2543;DHT22;1116;51.502;7.414;2022-08-14T11:33:42;30.80;1.00
2543;DHT22;1116;51.502;7.414;2022-08-14T11:36:15;30.90;1.00
2543;DHT22;1116;51.502;7.414;2022-08-14T11:38:45;31.10;1.00
2543;DHT22;1116;51.502;7.414;2022-08-14T11:41:16;31.10;1.00
2543;DHT22;1116;51.502;7.414;2022-08-14T11:43:46;30.90;1.00
2543;DHT22;1116;51.502;7.414;2022-08-14T11:46:26;31.10;1.00
2543;DHT22;1116;51.502;7.414;2022-08-14T11:49:04;31.30;1.00
2543;DHT22;1116;51.502;7.414;2022-08-14T11:51:33;31.30;1.00
2543;DHT22;1116;51.502;7.414;2022-08-14T11:54:21;31.00;1.00
2543;DHT22;1116;51.502;7.414;2022-08-14T11:57:03;31.00;1.00
2543;DHT22;1116;51.502;7.414;2022-08-14T11:59:32;31.10;1.00
2543;DHT22;1116;51.502;7.414;2022-08-14T12:02:09;31.70;1.00
2543;DHT22;1116;51.502;7.414;2022-08-14T12:04:59;31.70;1.00
2543;DHT22;1116;51.502;7.414;2022-08-14T12:07:31;31.60;1.00
2543;DHT22;1116;51.502;7.414;2022-08-14T12:10:03;31.40;1.00
2543;DHT22;1116;51.502;7.414;2022-08-14T12:12:54;31.30;1.00
2543;DHT22;1116;51.502;7.414;2022-08-14T12:15:31;31.40;1.00
2543;DHT22;1116;51.502;7.414;2022-08-14T12:18:05;31.30;1.00
2543;DHT22;1116;51.502;7.414;2022-08-14T12:20:50;31.40;1.00
2543;DHT22;1116;51.502;7.414;2022-08-14T12:23:26;31.50;1.00
2543;DHT22;1116;51.502;7.414;2022-08-14T12:26:03;31.40;1.00
2543;DHT22;1116;51.502;7.414;2022-08-14T12:29:04;31.50;1.00
2543;DHT22;1116;51.502;7.414;2022-08-14T12:31:36;31.70;1.00
2543;DHT22;1116;51.502;7.414;2022-08-14T12:34:14;31.70;1.00
2543;DHT22;1116;51.502;7.414;2022-08-14T12:37:00;31.60;1.00
2543;DHT22;1116;51.502;7.414;2022-08-14T12:39:31;31.50;1.00
2543;DHT22;1116;51.502;7.414;2022-08-14T12:42:07;31.80;1.00
2543;DHT22;1116;51.502;7.414;2022-08-14T12:44:55;31.70;1.00
2543;DHT22;1116;51.502;7.414;2022-08-14T12:47:30;32.00;1.00
2543;DHT22;1116;51.502;7.414;2022-08-14T12:50:00;31.90;1.00
2543;DHT22;1116;51.502;7.414;2022-08-14T12:52:33;31.80;1.00
2543;DHT22;1116;51.502;7.414;2022-08-14T12:55:22;31.60;1.00
2543;DHT22;1116;51.502;7.414;2022-08-14T12:58:12;31.80;1.00
2543;DHT22;1116;51.502;7.414;2022-08-14T13:01:03;31.70;1.00
2543;DHT22;1116;51.502;7.414;2022-08-14T13:03:44;31.80;1.00
2543;DHT22;1116;51.502;7.414;2022-08-14T13:06:18;31.80;1.00
2543;DHT22;1116;51.502;7.414;2022-08-14T13:08:51;31.30;1.00
2543;DHT22;1116;51.502;7.414;2022-08-14T13:11:32;31.80;1.00
2543;DHT22;1116;51.502;7.414;2022-08-14T13:14:09;31.80;1.00
2543;DHT22;1116;51.502;7.414;2022-08-14T13:16:46;32.40;1.00
2543;DHT22;1116;51.502;7.414;2022-08-14T13:19:17;31.90;1.00
2543;DHT22;1116;51.502;7.414;2022-08-14T13:21:53;31.90;1.00
2543;DHT22;1116;51.502;7.414;2022-08-14T13:24:32;31.90;1.00
2543;DHT22;1116;51.502;7.414;2022-08-14T13:27:03;32.10;1.00
2543;DHT22;1116;51.502;7.414;2022-08-14T13:29:39;32.20;1.00
2543;DHT22;1116;51.502;7.414;2022-08-14T13:32:15;32.40;1.00
2543;DHT22;1116;51.502;7.414;2022-08-14T13:34:48;31.90;1.00
2543;DHT22;1116;51.502;7.414;2022-08-14T13:37:19;32.00;1.00
2543;DHT22;1116;51.502;7.414;2022-08-14T13:39:52;32.00;1.00
2543;DHT22;1116;51.502;7.414;2022-08-14T13:42:26;32.20;1.00
2543;DHT22;1116;51.502;7.414;2022-08-14T13:44:59;32.00;1.00
2543;DHT22;1116;51.502;7.414;2022-08-14T13:47:30;32.00;1.00
2543;DHT22;1116;51.502;7.414;2022-08-14T13:50:03;32.20;1.00
2543;DHT22;1116;51.502;7.414;2022-08-14T13:52:40;32.30;1.00
2543;DHT22;1116;51.502;7.414;2022-08-14T13:55:20;32.30;1.00
2543;DHT22;1116;51.502;7.414;2022-08-14T13:57:55;32.00;1.00
2543;DHT22;1116;51.502;7.414;2022-08-14T14:00:33;32.00;1.00
2543;DHT22;1116;51.502;7.414;2022-08-14T14:03:24;32.10;1.00
2543;DHT22;1116;51.502;7.414;2022-08-14T14:05:59;31.60;1.00
2543;DHT22;1116;51.502;7.414;2022-08-14T14:08:33;31.80;1.00
2543;DHT22;1116;51.502;7.414;2022-08-14T14:11:16;32.00;1.00
2543;DHT22;1116;51.502;7.414;2022-08-14T14:13:47;32.20;1.00
2543;DHT22;1116;51.502;7.414;2022-08-14T14:16:16;32.30;1.00
2543;DHT22;1116;51.502;7.414;2022-08-14T14:18:55;32.40;1.00
2543;DHT22;1116;51.502;7.414;2022-08-14T14:21:33;32.20;1.00
2543;DHT22;1116;51.502;7.414;2022-08-14T14:24:04;32.60;1.00
2543;DHT22;1116;51.502;7.414;2022-08-14T14:26:34;32.30;1.00
2543;DHT22;1116;51.502;7.414;2022-08-14T14:29:05;32.30;1.00
2543;DHT22;1116;51.502;7.414;2022-08-14T14:31:35;32.10;1.00
2543;DHT22;1116;51.502;7.414;2022-08-14T14:34:09;32.40;1.00
2543;DHT22;1116;51.502;7.414;2022-08-14T14:36:58;32.30;1.00
2543;DHT22;1116;51.502;7.414;2022-08-14T14:39:31;32.40;1.00
2543;DHT22;1116;51.502;7.414;2022-08-14T14:42:06;32.20;1.00
2543;DHT22;1116;51.502;7.414;2022-08-14T14:44:45;32.20;1.00
2543;DHT22;1116;51.502;7.414;2022-08-14T14:47:24;32.20;1.00
2543;DHT22;1116;51.502;7.414;2022-08-14T14:49:55;32.20;1.00
2543;DHT22;1116;51.502;7.414;2022-08-14T14:52:25;32.40;1.00
2543;DHT22;1116;51.502;7.414;2022-08-14T14:54:56;32.50;1.00
2543;DHT22;1116;51.502;7.414;2022-08-14T14:57:27;32.70;1.00
2543;DHT22;1116;51.502;7.414;2022-08-14T15:00:07;32.40;1.00
2543;DHT22;1116;51.502;7.414;2022-08-14T15:02:41;32.50;1.00
2543;DHT22;1116;51.502;7.414;2022-08-14T15:05:14;32.60;1.00
2543;DHT22;1116;51.502;7.414;2022-08-14T15:07:48;32.60;1.00
2543;DHT22;1116;51.502;7.414;2022-08-14T15:10:21;32.40;1.00
2543;DHT22;1116;51.502;7.414;2022-08-14T15:12:59;32.60;1.00
2543;DHT22;1116;51.502;7.414;2022-08-14T15:15:32;32.50;1.00
2543;DHT22;1116;51.502;7.414;2022-08-14T15:18:04;32.70;1.00
2543;DHT22;1116;51.502;7.414;2022-08-14T15:20:56;32.40;1.00
2543;DHT22;1116;51.502;7.414;2022-08-14T15:23:29;32.50;1.00
2543;DHT22;1116;51.502;7.414;2022-08-14T15:26:11;32.70;1.00
2543;DHT22;1116;51.502;7.414;2022-08-14T15:28:59;32.70;1.00
2543;DHT22;1116;51.502;7.414;2022-08-14T15:31:31;32.60;1.00
2543;DHT22;1116;51.502;7.414;2022-08-14T15:34:03;32.60;1.00
2543;DHT22;1116;51.502;7.414;2022-08-14T15:37:00;32.90;1.00
2543;DHT22;1116;51.502;7.414;2022-08-14T15:39:30;32.80;1.00
2543;DHT22;1116;51.502;7.414;2022-08-14T15:42:05;32.80;1.00
2543;DHT22;1116;51.502;7.414;2022-08-14T15:44:43;32.50;1.00
2543;DHT22;1116;51.502;7.414;2022-08-14T15:47:29;32.30;1.00
2543;DHT22;1116;51.502;7.414;2022-08-14T15:50:00;32.50;1.00
2543;DHT22;1116;51.502;7.414;2022-08-14T15:52:32;32.00;1.00
2543;DHT22;1116;51.502;7.414;2022-08-14T15:55:07;31.90;1.00
2543;DHT22;1116;51.502;7.414;2022-08-14T15:57:39;32.00;1.00
2543;DHT22;1116;51.502;7.414;2022-08-14T16:00:29;32.20;1.00
2543;DHT22;1116;51.502;7.414;2022-08-14T16:03:18;32.50;1.00
2543;DHT22;1116;51.502;7.414;2022-08-14T16:06:03;32.50;1.00
2543;DHT22;1116;51.502;7.414;2022-08-14T16:08:39;32.20;1.00
2543;DHT22;1116;51.502;7.414;2022-08-14T16:11:10;32.20;1.00
2543;DHT22;1116;51.502;7.414;2022-08-14T16:13:40;32.20;1.00
2543;DHT22;1116;51.502;7.414;2022-08-14T16:16:13;32.40;1.00
2543;DHT22;1116;51.502;7.414;2022-08-14T16:19:05;32.10;1.00
2543;DHT22;1116;51.502;7.414;2022-08-14T16:21:39;32.20;1.00
2543;DHT22;1116;51.502;7.414;2022-08-14T16:24:32;32.30;1.00
2543;DHT22;1116;51.502;7.414;2022-08-14T16:27:22;32.30;1.00
2543;DHT22;1116;51.502;7.414;2022-08-14T16:30:13;32.40;1.00
2543;DHT22;1116;51.502;7.414;2022-08-14T16:32:55;32.30;1.00
2543;DHT22;1116;51.502;7.414;2022-08-14T16:35:27;32.50;1.00
2543;DHT22;1116;51.502;7.414;2022-08-14T16:38:21;32.20;1.00
2543;DHT22;1116;51.502;7.414;2022-08-14T16:41:13;32.50;1.00
2543;DHT22;1116;51.502;7.414;2022-08-14T16:43:53;32.00;1.00
2543;DHT22;1116;51.502;7.414;2022-08-14T16:46:28;32.00;1.00
2543;DHT22;1116;51.502;7.414;2022-08-14T16:49:00;32.00;1.00
2543;DHT22;1116;51.502;7.414;2022-08-14T16:51:31;32.00;1.00
2543;DHT22;1116;51.502;7.414;2022-08-14T16:54:05;32.00;1.00
2543;DHT22;1116;51.502;7.414;2022-08-14T16:57:11;32.00;1.00
2543;DHT22;1116;51.502;7.414;2022-08-14T16:59:44;32.10;1.00
2543;DHT22;1116;51.502;7.414;2022-08-14T17:02:35;32.20;1.00
2543;DHT22;1116;51.502;7.414;2022-08-14T17:05:17;32.40;1.00
2543;DHT22;1116;51.502;7.414;2022-08-14T17:08:16;32.20;1.00
2543;DHT22;1116;51.502;7.414;2022-08-14T17:11:06;32.60;1.00
2543;DHT22;1116;51.502;7.414;2022-08-14T17:13:41;32.60;1.00
2543;DHT22;1116;51.502;7.414;2022-08-14T17:16:30;32.20;1.00
2543;DHT22;1116;51.502;7.414;2022-08-14T17:19:05;32.50;1.00
2543;DHT22;1116;51.502;7.414;2022-08-14T17:21:42;32.10;1.00
2543;DHT22;1116;51.502;7.414;2022-08-14T17:24:15;32.20;1.00
2543;DHT22;1116;51.502;7.414;2022-08-14T17:27:05;32.10;1.00
2543;DHT22;1116;51.502;7.414;2022-08-14T17:29:38;31.80;1.00